Time;durP1;ratioP1;P1;durP2;ratioP2;P2;SDS_P1;SDS_P2;PMS_P1;PMS_P2;Temp;Humidity;BMP_temperature;BMP_pressure;BME280_temperature;BME280_humidity;BME280_pressure;Samples;Min_cycle;Max_cycle;Signal;HPM_P1;HPM_P2
2023/03/28 00:01:54;;;;;;;28.48;3.67;;;4.10;99.90;;;;;;5067604;28;20102;-60
2023/03/28 00:04:21;;;;;;;19.38;3.53;;;4.10;99.90;;;;;;5070291;28;20525;-60
2023/03/28 00:06:52;;;;;;;15.13;2.22;;;4.10;99.90;;;;;;5051665;28;20040;-60
2023/03/28 00:09:19;;;;;;;25.48;3.13;;;4.10;99.90;;;;;;5070474;28;20094;-60
2023/03/28 00:11:45;;;;;;;28.73;3.92;;;4.10;99.90;;;;;;5069330;28;20044;-60
2023/03/28 00:14:13;;;;;;;26.35;4.10;;;4.20;99.90;;;;;;5070421;28;20044;-60
2023/03/28 00:16:40;;;;;;;20.00;2.90;;;4.20;99.50;;;;;;5068341;28;20041;-60
2023/03/28 00:19:10;;;;;;;23.10;3.25;;;4.30;99.20;;;;;;5043960;28;20045;-60
2023/03/28 00:21:39;;;;;;;20.55;1.88;;;4.30;99.30;;;;;;5061003;28;20041;-60
2023/03/28 00:24:09;;;;;;;12.27;2.30;;;4.30;98.20;;;;;;5050316;28;20045;-60
2023/03/28 00:26:36;;;;;;;17.67;2.50;;;4.30;99.90;;;;;;5069889;28;20049;-60
2023/03/28 00:29:04;;;;;;;13.95;1.88;;;4.40;99.90;;;;;;5069135;28;20552;-60
2023/03/28 00:31:31;;;;;;;12.50;2.55;;;4.30;99.90;;;;;;5069496;28;20078;-60
2023/03/28 00:33:57;;;;;;;12.40;1.52;;;4.30;99.90;;;;;;5069065;28;20455;-60
2023/03/28 00:36:28;;;;;;;18.80;1.98;;;4.20;99.90;;;;;;5068994;28;20548;-60
2023/03/28 00:39:00;;;;;;;19.58;2.03;;;4.20;99.90;;;;;;5069485;28;20372;-60
2023/03/28 00:41:30;;;;;;;18.20;2.90;;;4.20;99.90;;;;;;5051311;28;20040;-60
2023/03/28 00:43:56;;;;;;;15.68;3.15;;;4.20;99.90;;;;;;5051970;28;20036;-60
2023/03/28 00:46:26;;;;;;;17.33;2.38;;;4.20;99.40;;;;;;5050870;28;20099;-60
2023/03/28 00:48:55;;;;;;;24.90;3.03;;;4.20;98.10;;;;;;5069254;28;20124;-60
2023/03/28 00:51:32;;;;;;;19.90;3.38;;;4.10;96.40;;;;;;5069258;28;20464;-60
2023/03/28 00:54:02;;;;;;;15.57;2.50;;;4.10;95.10;;;;;;5068763;28;20082;-60
2023/03/28 00:56:32;;;;;;;13.77;2.10;;;4.10;94.20;;;;;;5069185;28;20044;-60
2023/03/28 00:59:03;;;;;;;22.65;2.45;;;4.10;93.50;;;;;;5068001;28;20044;-60
2023/03/28 01:01:29;;;;;;;20.13;3.53;;;4.00;93.10;;;;;;5068889;28;20044;-60
2023/03/28 01:04:01;;;;;;;13.65;2.72;;;3.90;91.90;;;;;;5050579;28;20418;-60
2023/03/28 01:06:28;;;;;;;26.25;2.78;;;4.00;91.00;;;;;;5068815;28;20041;-60
2023/03/28 01:08:55;;;;;;;25.15;3.35;;;4.00;91.90;;;;;;5050337;28;20052;-60
2023/03/28 01:11:23;;;;;;;29.63;4.53;;;4.00;90.40;;;;;;5068952;28;20032;-60
2023/03/28 01:13:51;;;;;;;26.05;4.43;;;4.00;90.00;;;;;;5068697;28;20048;-60
2023/03/28 01:16:19;;;;;;;15.45;3.08;;;4.10;88.00;;;;;;5068348;28;20099;-60
2023/03/28 01:18:50;;;;;;;16.80;3.25;;;4.10;86.50;;;;;;5050811;28;20403;-60
2023/03/28 01:21:34;;;;;;;17.60;3.15;;;4.00;86.60;;;;;;5069020;28;20040;-60
2023/03/28 01:24:12;;;;;;;19.38;2.83;;;4.00;87.10;;;;;;5068120;28;20040;-60
2023/03/28 01:27:13;;;;;;;17.50;2.90;;;4.00;90.70;;;;;;5069144;28;20090;-60
2023/03/28 01:30:11;;;;;;;27.50;4.68;;;3.90;91.90;;;;;;4992275;28;20065;-60
2023/03/28 01:33:04;;;;;;;20.95;4.53;;;3.90;92.00;;;;;;5019418;28;20091;-60
2023/03/28 01:36:23;;;;;;;17.05;3.00;;;4.00;92.80;;;;;;5034325;28;20055;-60
2023/03/28 01:38:56;;;;;;;20.35;4.13;;;3.90;92.60;;;;;;5040147;28;20063;-60
2023/03/28 01:41:40;;;;;;;17.45;3.28;;;3.80;93.60;;;;;;5068422;28;20433;-60
2023/03/28 01:44:11;;;;;;;19.10;3.45;;;3.70;93.80;;;;;;5068336;28;20855;-60
2023/03/28 01:46:43;;;;;;;33.90;4.70;;;3.60;95.00;;;;;;5050189;28;20418;-60
2023/03/28 01:49:13;;;;;;;27.30;3.90;;;3.50;96.10;;;;;;5067420;28;20050;-60
2023/03/28 01:51:56;;;;;;;26.02;4.07;;;3.40;96.30;;;;;;5068124;28;20481;-60
2023/03/28 01:54:22;;;;;;;17.48;3.53;;;3.30;96.70;;;;;;5068388;28;20392;-60
2023/03/28 01:56:56;;;;;;;17.15;3.92;;;3.30;96.00;;;;;;5068401;28;20048;-60
2023/03/28 01:59:24;;;;;;;21.13;3.60;;;3.20;96.70;;;;;;5067363;28;20047;-60
2023/03/28 02:02:23;;;;;;;26.35;3.83;;;3.20;96.70;;;;;;5067663;28;20055;-60
2023/03/28 02:04:51;;;;;;;19.70;3.95;;;3.20;96.80;;;;;;5049697;28;20052;-60
2023/03/28 02:07:20;;;;;;;13.93;2.97;;;3.20;96.80;;;;;;5068037;28;20033;-60
2023/03/28 02:09:47;;;;;;;16.15;2.90;;;3.10;96.60;;;;;;5067848;28;20040;-60
2023/03/28 02:12:23;;;;;;;17.65;3.10;;;3.10;97.00;;;;;;5065809;28;20111;-60
2023/03/28 02:14:51;;;;;;;16.42;3.42;;;3.10;96.90;;;;;;5049555;28;20056;-60
2023/03/28 02:17:19;;;;;;;17.30;2.17;;;3.10;96.80;;;;;;5043633;28;20053;-60
2023/03/28 02:19:52;;;;;;;19.80;2.72;;;3.00;96.50;;;;;;5036327;28;20048;-60
2023/03/28 02:22:36;;;;;;;29.27;2.78;;;2.90;96.70;;;;;;5033169;28;20036;-60
2023/03/28 02:25:02;;;;;;;9.35;1.85;;;2.80;96.90;;;;;;5054605;28;20131;-60
2023/03/28 02:27:27;;;;;;;12.70;2.30;;;2.70;96.70;;;;;;5067848;28;20128;-60
2023/03/28 02:29:53;;;;;;;10.85;2.05;;;2.60;97.00;;;;;;5048779;28;20048;-60
2023/03/28 02:32:22;;;;;;;21.17;2.63;;;2.50;97.10;;;;;;5049881;28;20503;-60
2023/03/28 02:34:51;;;;;;;19.17;2.45;;;2.40;97.30;;;;;;5066950;28;20124;-60
2023/03/28 02:37:31;;;;;;;10.55;1.98;;;2.30;97.70;;;;;;5048731;28;20133;-60
2023/03/28 02:40:06;;;;;;;9.77;2.38;;;2.20;97.50;;;;;;5048916;28;20045;-60
2023/03/28 02:42:46;;;;;;;24.98;4.28;;;2.20;97.40;;;;;;5066940;28;20055;-60
2023/03/28 02:45:18;;;;;;;;;;;2.10;97.30;;;;;;5067231;28;20041;-60
2023/03/28 02:48:38;;;;;;;16.08;1.23;;;2.00;97.90;;;;;;5067039;28;19943;-60
2023/03/28 02:51:28;;;;;;;11.07;1.98;;;2.00;98.00;;;;;;5002613;28;20053;-60
2023/03/28 02:54:31;;;;;;;14.30;1.67;;;2.00;98.00;;;;;;5054867;28;20123;-60
2023/03/28 02:57:35;;;;;;;12.13;1.70;;;2.00;99.40;;;;;;5064179;28;20064;-60
2023/03/28 03:00:12;;;;;;;15.35;1.60;;;2.00;98.80;;;;;;5003788;28;20500;-60
2023/03/28 03:02:50;;;;;;;12.00;1.92;;;2.00;98.80;;;;;;5054588;28;20061;-60
2023/03/28 03:05:18;;;;;;;13.65;2.28;;;2.00;99.80;;;;;;5048301;28;20173;-60
2023/03/28 03:07:46;;;;;;;15.23;2.22;;;2.00;99.90;;;;;;5066978;28;20398;-60
2023/03/28 03:10:13;;;;;;;20.17;2.20;;;2.00;99.70;;;;;;5048696;28;20491;-60
2023/03/28 03:12:39;;;;;;;13.65;2.20;;;2.10;98.70;;;;;;5066270;28;20253;-60
2023/03/28 03:15:06;;;;;;;9.02;1.92;;;2.10;97.10;;;;;;5066723;28;20084;-60
2023/03/28 03:17:32;;;;;;;11.77;2.03;;;2.10;97.40;;;;;;5066441;28;20058;-60
2023/03/28 03:19:58;;;;;;;14.70;2.17;;;2.10;97.60;;;;;;5048947;28;20048;-60
2023/03/28 03:22:24;;;;;;;22.80;2.15;;;2.00;97.90;;;;;;5066421;28;20044;-60
2023/03/28 03:24:50;;;;;;;11.30;2.40;;;2.00;98.30;;;;;;5052484;28;20379;-60
2023/03/28 03:27:20;;;;;;;12.80;2.60;;;2.00;98.70;;;;;;5066503;28;20106;-60
2023/03/28 03:29:47;;;;;;;22.90;2.97;;;2.00;99.10;;;;;;5066421;28;20069;-60
2023/03/28 03:32:13;;;;;;;11.70;2.03;;;2.00;99.90;;;;;;5066337;28;20040;-60
2023/03/28 03:34:40;;;;;;;17.45;2.67;;;1.90;99.90;;;;;;5066361;28;20076;-60
2023/03/28 03:37:08;;;;;;;16.00;2.40;;;1.90;99.90;;;;;;5066856;28;20040;-60
2023/03/28 03:39:35;;;;;;;11.88;1.98;;;1.90;98.90;;;;;;5066236;28;20514;-60
2023/03/28 03:42:02;;;;;;;10.35;1.75;;;1.80;97.90;;;;;;5066636;28;20040;-60
2023/03/28 03:44:33;;;;;;;16.70;1.80;;;1.80;98.20;;;;;;5049316;28;20212;-60
2023/03/28 03:46:59;;;;;;;9.57;1.42;;;1.70;97.90;;;;;;5066686;28;20044;-60
2023/03/28 03:49:25;;;;;;;16.00;1.70;;;1.70;98.10;;;;;;5066264;28;20426;-60
2023/03/28 03:51:51;;;;;;;14.18;2.15;;;1.60;98.20;;;;;;5066349;28;20045;-60
2023/03/28 03:54:17;;;;;;;11.40;1.92;;;1.60;98.60;;;;;;5066662;28;20491;-60
2023/03/28 03:56:43;;;;;;;11.65;1.33;;;1.50;99.00;;;;;;5065908;28;20040;-60
2023/03/28 03:59:08;;;;;;;13.48;1.60;;;1.30;99.40;;;;;;5065919;28;20372;-60
2023/03/28 04:01:34;;;;;;;17.83;2.05;;;1.30;99.90;;;;;;5047973;28;20498;-60
2023/03/28 04:04:00;;;;;;;8.27;1.67;;;1.30;99.90;;;;;;5066054;28;20114;-60
2023/03/28 04:06:28;;;;;;;10.68;2.00;;;1.30;99.90;;;;;;5048285;28;20055;-60
2023/03/28 04:08:54;;;;;;;7.28;1.42;;;1.20;99.90;;;;;;5048022;28;20044;-60
2023/03/28 04:11:19;;;;;;;13.95;1.90;;;1.20;99.90;;;;;;5066539;28;20044;-60
2023/03/28 04:13:45;;;;;;;12.63;1.75;;;1.20;99.90;;;;;;5065593;28;20048;-61
2023/03/28 04:16:12;;;;;;;15.43;2.15;;;1.30;99.90;;;;;;5048345;28;20567;-60
2023/03/28 04:18:38;;;;;;;7.45;1.52;;;1.30;99.90;;;;;;5066258;28;20120;-60
2023/03/28 04:21:05;;;;;;;8.98;1.70;;;1.30;99.90;;;;;;5066007;28;20044;-60
2023/03/28 04:23:31;;;;;;;9.95;1.45;;;1.30;99.90;;;;;;5066176;28;20037;-60
2023/03/28 04:25:57;;;;;;;9.55;1.65;;;1.30;99.90;;;;;;5065558;28;20105;-60
2023/03/28 04:28:24;;;;;;;11.55;1.77;;;1.20;99.90;;;;;;5065995;28;20161;-60
2023/03/28 04:30:57;;;;;;;5.97;1.45;;;1.30;99.90;;;;;;5065844;28;20505;-60
2023/03/28 04:33:32;;;;;;;9.93;1.85;;;1.20;99.90;;;;;;5066070;28;20041;-60
2023/03/28 04:36:00;;;;;;;16.45;2.05;;;1.20;99.90;;;;;;5048983;28;20074;-60
2023/03/28 04:38:34;;;;;;;13.13;1.70;;;1.20;99.90;;;;;;5051164;28;20049;-60
2023/03/28 04:41:02;;;;;;;19.73;2.40;;;1.20;99.90;;;;;;5069840;28;20044;-60
2023/03/28 04:43:30;;;;;;;13.13;1.73;;;1.10;99.90;;;;;;5068874;28;20069;-60
2023/03/28 04:45:56;;;;;;;13.73;1.90;;;1.00;99.90;;;;;;5070051;28;20110;-60
2023/03/28 04:48:24;;;;;;;13.20;1.77;;;1.00;99.90;;;;;;5050874;28;20040;-60
2023/03/28 04:50:51;;;;;;;16.52;1.92;;;1.10;99.90;;;;;;5069372;28;20057;-60
2023/03/28 04:53:17;;;;;;;16.70;2.20;;;1.00;99.90;;;;;;5050736;28;20628;-60
2023/03/28 04:55:49;;;;;;;15.07;1.88;;;1.10;99.90;;;;;;5051000;28;20052;-60
2023/03/28 04:58:19;;;;;;;16.27;2.35;;;1.10;99.90;;;;;;5069235;28;20048;-60
2023/03/28 05:00:45;;;;;;;20.08;2.30;;;1.00;99.90;;;;;;5068872;28;20044;-60
2023/03/28 05:03:13;;;;;;;17.15;2.10;;;1.10;99.90;;;;;;5045993;28;20101;-60
2023/03/28 05:05:47;;;;;;;12.52;1.85;;;1.10;99.90;;;;;;5050894;28;20098;-60
2023/03/28 05:08:15;;;;;;;9.82;1.30;;;1.10;99.90;;;;;;5068925;28;20063;-60
2023/03/28 05:10:42;;;;;;;10.75;1.83;;;1.10;99.90;;;;;;5068995;28;20097;-61
2023/03/28 05:13:08;;;;;;;13.05;1.95;;;1.20;99.90;;;;;;5051187;28;20048;-60
2023/03/28 05:15:34;;;;;;;13.52;1.67;;;1.20;99.90;;;;;;5051315;28;20067;-60
2023/03/28 05:18:00;;;;;;;14.40;1.60;;;1.10;99.90;;;;;;5049941;28;20056;-60
2023/03/28 05:20:26;;;;;;;11.15;1.80;;;1.10;99.90;;;;;;5068994;28;20063;-60
2023/03/28 05:22:52;;;;;;;13.15;2.05;;;1.10;99.90;;;;;;5068160;28;20040;-60
2023/03/28 05:25:18;;;;;;;12.45;1.38;;;1.10;99.90;;;;;;5050975;28;20056;-61
2023/03/28 05:27:44;;;;;;;12.52;2.13;;;1.10;99.90;;;;;;5068130;28;20502;-60
2023/03/28 05:30:11;;;;;;;29.70;2.95;;;1.10;99.90;;;;;;5068962;28;20044;-60
2023/03/28 05:32:37;;;;;;;19.60;1.90;;;1.10;99.90;;;;;;5068301;28;20040;-60
2023/03/28 05:35:04;;;;;;;14.90;2.45;;;1.10;99.90;;;;;;5068598;28;20078;-60
2023/03/28 05:37:30;;;;;;;11.45;1.67;;;1.10;99.90;;;;;;5068328;28;20056;-61
2023/03/28 05:39:56;;;;;;;13.38;1.55;;;1.10;99.90;;;;;;5067715;28;20045;-60
2023/03/28 05:42:22;;;;;;;11.25;1.58;;;1.10;99.90;;;;;;5050658;28;20131;-60
2023/03/28 05:44:48;;;;;;;23.77;2.30;;;1.10;99.90;;;;;;5068202;28;20477;-60
2023/03/28 05:47:13;;;;;;;9.52;1.10;;;1.10;99.90;;;;;;5050770;28;20044;-60
2023/03/28 05:49:39;;;;;;;10.20;1.98;;;1.10;99.90;;;;;;5066971;28;20668;-60
2023/03/28 05:52:06;;;;;;;10.93;1.20;;;1.10;99.90;;;;;;5068073;28;20053;-60
2023/03/28 05:54:31;;;;;;;17.95;1.88;;;1.00;99.90;;;;;;5067951;28;20124;-60
2023/03/28 05:56:57;;;;;;;10.30;1.67;;;1.10;99.90;;;;;;5067697;28;20182;-60
2023/03/28 05:59:23;;;;;;;12.57;2.33;;;1.10;99.90;;;;;;5068209;28;20449;-60
2023/03/28 06:01:54;;;;;;;17.90;1.90;;;1.10;99.90;;;;;;5032131;28;20470;-60
2023/03/28 06:04:21;;;;;;;15.20;2.45;;;1.20;99.90;;;;;;5050372;28;20050;-60
2023/03/28 06:06:49;;;;;;;5.82;1.40;;;1.30;99.90;;;;;;5067218;28;20044;-61
2023/03/28 06:09:15;;;;;;;15.45;1.90;;;1.40;99.90;;;;;;5067669;28;20032;-60
2023/03/28 06:11:41;;;;;;;32.70;3.35;;;1.50;99.90;;;;;;5067842;28;20039;-60
2023/03/28 06:14:08;;;;;;;18.35;3.17;;;1.60;99.90;;;;;;5067161;28;20396;-60
2023/03/28 06:16:34;;;;;;;22.00;2.33;;;1.80;99.90;;;;;;5049684;28;20503;-60
2023/03/28 06:19:00;;;;;;;14.82;1.50;;;2.00;99.90;;;;;;5067676;28;20041;-60
2023/03/28 06:21:26;;;;;;;9.88;1.70;;;2.30;99.90;;;;;;5067711;28;20521;-60
2023/03/28 06:23:52;;;;;;;10.18;1.48;;;2.60;99.90;;;;;;5049485;28;20101;-60
2023/03/28 06:26:18;;;;;;;8.38;1.40;;;2.60;98.40;;;;;;5067414;28;20035;-61
2023/03/28 06:28:44;;;;;;;12.60;2.00;;;2.80;97.80;;;;;;5067377;28;20049;-60
2023/03/28 06:31:13;;;;;;;20.13;2.15;;;3.00;96.70;;;;;;5067093;28;20552;-60
2023/03/28 06:33:40;;;;;;;9.00;1.38;;;3.30;95.80;;;;;;5049479;28;20088;-63
2023/03/28 06:36:10;;;;;;;12.68;2.33;;;3.60;93.90;;;;;;5066669;28;20087;-62
2023/03/28 06:38:35;;;;;;;14.15;2.97;;;3.80;92.50;;;;;;5067080;28;20127;-62
2023/03/28 06:41:02;;;;;;;18.55;1.85;;;4.00;92.00;;;;;;5067407;28;20573;-62
2023/03/28 06:43:32;;;;;;;16.27;2.85;;;4.20;88.30;;;;;;5067145;28;20032;-62
2023/03/28 06:45:58;;;;;;;13.60;2.03;;;4.40;81.20;;;;;;5067739;28;20131;-62
2023/03/28 06:48:30;;;;;;;18.17;1.90;;;4.70;78.70;;;;;;5067131;28;20123;-62
2023/03/28 06:50:56;;;;;;;6.75;1.38;;;4.80;74.80;;;;;;5050054;28;20049;-62
2023/03/28 06:53:22;;;;;;;15.88;1.65;;;4.70;74.80;;;;;;5066522;28;20506;-62
2023/03/28 06:55:50;;;;;;;11.77;2.35;;;4.60;73.80;;;;;;5067024;28;20043;-62
2023/03/28 06:58:16;;;;;;;5.47;1.50;;;4.50;76.30;;;;;;5066332;28;20058;-62
2023/03/28 07:00:42;;;;;;;16.63;1.65;;;4.50;78.70;;;;;;5066670;28;20494;-62
2023/03/28 07:03:08;;;;;;;19.10;3.35;;;4.60;79.70;;;;;;5066588;28;20057;-62
2023/03/28 07:05:38;;;;;;;12.35;1.85;;;4.60;81.00;;;;;;5066094;28;20117;-62
2023/03/28 07:08:09;;;;;;;8.45;2.00;;;4.70;83.20;;;;;;5067572;28;20044;-62
2023/03/28 07:10:36;;;;;;;10.98;2.10;;;4.90;83.60;;;;;;5048200;28;20080;-62
2023/03/28 07:13:03;;;;;;;8.50;1.60;;;5.00;81.80;;;;;;5067298;28;20161;-62
2023/03/28 07:15:28;;;;;;;10.02;2.38;;;5.00;76.40;;;;;;5048324;28;20060;-62
2023/03/28 07:17:54;;;;;;;12.50;2.30;;;5.00;78.70;;;;;;5066159;28;20032;-62
2023/03/28 07:20:20;;;;;;;14.45;1.80;;;5.00;77.10;;;;;;5048871;28;20363;-62
2023/03/28 07:22:46;;;;;;;18.60;2.10;;;5.00;77.20;;;;;;5066207;28;20051;-62
2023/03/28 07:25:12;;;;;;;17.35;2.22;;;5.20;80.00;;;;;;5032683;28;20478;-62
2023/03/28 07:27:38;;;;;;;16.80;2.17;;;5.30;78.90;;;;;;5065576;28;20032;-62
2023/03/28 07:30:05;;;;;;;13.88;2.25;;;5.40;78.80;;;;;;5036408;28;20063;-63
2023/03/28 07:32:31;;;;;;;12.38;2.30;;;5.50;78.60;;;;;;5066348;28;20040;-62
2023/03/28 07:34:57;;;;;;;8.88;1.83;;;5.70;78.20;;;;;;5066112;28;20440;-62
2023/03/28 07:37:23;;;;;;;13.82;2.42;;;5.80;77.30;;;;;;5066707;28;20089;-62
2023/03/28 07:39:48;;;;;;;12.13;2.22;;;5.90;75.90;;;;;;5048172;28;20048;-62
2023/03/28 07:42:15;;;;;;;4.70;1.20;;;5.90;74.00;;;;;;5066299;28;20170;-62
2023/03/28 07:44:41;;;;;;;20.70;2.13;;;5.90;78.80;;;;;;5065630;28;20090;-62
2023/03/28 07:47:08;;;;;;;15.73;1.95;;;6.00;76.80;;;;;;5067300;28;20032;-62
2023/03/28 07:49:34;;;;;;;8.77;1.60;;;6.10;78.60;;;;;;5065598;28;20138;-62
2023/03/28 07:52:01;;;;;;;16.35;2.90;;;6.10;70.70;;;;;;5066411;28;20461;-62
2023/03/28 07:54:27;;;;;;;14.63;2.00;;;6.00;71.90;;;;;;5066163;28;20037;-62
2023/03/28 07:56:53;;;;;;;25.67;2.65;;;5.90;72.60;;;;;;5065793;28;20054;-62
2023/03/28 07:59:19;;;;;;;18.48;1.70;;;5.90;78.70;;;;;;5066214;28;20495;-62
2023/03/28 08:01:45;;;;;;;8.88;1.55;;;5.90;82.00;;;;;;5047793;28;20046;-62
2023/03/28 08:04:12;;;;;;;16.55;1.70;;;5.90;76.10;;;;;;5030798;28;20040;-62
2023/03/28 08:06:39;;;;;;;13.02;1.65;;;6.10;77.40;;;;;;5047143;28;20491;-62
2023/03/28 08:09:07;;;;;;;10.30;1.50;;;6.10;76.50;;;;;;5066136;28;20394;-62
2023/03/28 08:11:37;;;;;;;9.63;1.95;;;6.20;71.70;;;;;;5068268;28;20043;-62
2023/03/28 08:14:04;;;;;;;14.57;1.73;;;6.20;70.30;;;;;;5044389;28;20040;-62
2023/03/28 08:16:31;;;;;;;12.90;2.78;;;6.30;72.30;;;;;;5041826;28;20049;-62
2023/03/28 08:18:58;;;;;;;10.57;2.55;;;6.30;70.50;;;;;;5062687;28;20051;-63
2023/03/28 08:21:24;;;;;;;11.88;1.73;;;6.50;67.30;;;;;;5056951;28;20079;-62
2023/03/28 08:23:50;;;;;;;7.28;1.90;;;6.50;65.50;;;;;;5051220;28;20045;-62
2023/03/28 08:26:16;;;;;;;12.48;2.08;;;6.50;64.50;;;;;;5051901;28;20052;-62
2023/03/28 08:28:44;;;;;;;9.82;1.83;;;6.40;65.60;;;;;;5059769;28;20502;-62
2023/03/28 08:31:14;;;;;;;12.02;1.65;;;6.30;69.00;;;;;;5068290;28;20040;-62
2023/03/28 08:33:42;;;;;;;11.32;1.80;;;6.40;69.60;;;;;;5066584;28;20076;-62
2023/03/28 08:36:09;;;;;;;11.07;1.58;;;6.60;72.10;;;;;;5061198;28;20134;-62
2023/03/28 08:38:35;;;;;;;10.40;1.50;;;6.80;66.00;;;;;;5064628;28;20052;-62
2023/03/28 08:41:17;;;;;;;9.32;1.30;;;6.80;63.80;;;;;;5038729;28;20049;-62
2023/03/28 08:43:48;;;;;;;15.43;1.83;;;6.90;62.40;;;;;;5062935;28;20491;-63
2023/03/28 08:46:17;;;;;;;11.35;1.80;;;7.00;58.20;;;;;;5036482;28;20133;-62
2023/03/28 08:48:44;;;;;;;9.50;1.45;;;7.00;56.10;;;;;;5055672;28;20045;-61
2023/03/28 08:51:29;;;;;;;15.55;1.35;;;7.20;56.10;;;;;;5051863;28;20061;-60
2023/03/28 08:54:07;;;;;;;15.10;1.80;;;7.30;56.10;;;;;;5049828;28;20048;-60
2023/03/28 08:56:40;;;;;;;9.18;1.63;;;7.40;48.30;;;;;;5051235;28;20041;-61
2023/03/28 08:59:11;;;;;;;9.07;1.55;;;7.50;50.70;;;;;;5068833;28;20086;-60
2023/03/28 09:01:37;;;;;;;6.93;1.50;;;7.60;50.70;;;;;;5069324;28;20044;-60
2023/03/28 09:04:03;;;;;;;8.98;1.15;;;7.70;49.00;;;;;;5034097;28;20517;-60
2023/03/28 09:06:43;;;;;;;4.38;1.40;;;7.70;47.90;;;;;;5046658;28;20072;-60
2023/03/28 09:09:11;;;;;;;10.27;1.63;;;7.80;50.40;;;;;;5067147;28;20055;-60
2023/03/28 09:12:01;;;;;;;5.45;1.00;;;7.90;51.40;;;;;;5042063;28;20052;-60
2023/03/28 09:14:56;;;;;;;7.70;1.30;;;8.00;46.30;;;;;;5061668;28;20107;-60
2023/03/28 09:17:43;;;;;;;9.30;1.65;;;8.00;41.90;;;;;;5052540;28;20450;-61
2023/03/28 09:20:50;;;;;;;9.50;1.15;;;8.00;43.60;;;;;;5067773;28;20513;-61
2023/03/28 09:23:27;;;;;;;12.60;1.33;;;7.80;43.10;;;;;;5055462;28;20045;-60
2023/03/28 09:26:13;;;;;;;9.43;1.05;;;7.90;44.80;;;;;;5044714;28;20053;-60
2023/03/28 09:28:54;;;;;;;12.10;0.95;;;7.70;32.00;;;;;;5061727;28;20122;-60
2023/03/28 09:31:25;;;;;;;8.75;1.30;;;7.60;42.90;;;;;;5057936;28;20414;-60
2023/03/28 09:33:54;;;;;;;13.48;1.08;;;7.70;39.00;;;;;;5039825;28;20072;-60
2023/03/28 09:36:24;;;;;;;7.10;1.20;;;7.70;33.90;;;;;;5033267;28;20138;-60
2023/03/28 09:39:27;;;;;;;6.53;1.40;;;7.70;33.20;;;;;;5057878;28;20483;-60
2023/03/28 09:42:04;;;;;;;5.30;1.20;;;7.70;29.70;;;;;;5067555;28;20051;-60
2023/03/28 09:44:35;;;;;;;10.82;1.38;;;7.60;34.30;;;;;;5068091;28;20127;-60
2023/03/28 09:47:03;;;;;;;6.55;0.98;;;7.60;35.00;;;;;;5049579;28;20056;-60
2023/03/28 09:49:29;;;;;;;4.20;0.90;;;7.60;33.40;;;;;;5068064;28;20110;-60
2023/03/28 09:51:56;;;;;;;5.03;1.27;;;7.60;33.30;;;;;;5067991;28;20457;-60
2023/03/28 09:54:36;;;;;;;10.00;1.42;;;7.60;34.00;;;;;;5067513;28;20048;-60
2023/03/28 09:57:03;;;;;;;5.80;0.85;;;7.70;35.00;;;;;;5067848;28;20445;-60
2023/03/28 09:59:31;;;;;;;6.32;0.93;;;7.80;34.30;;;;;;5063329;28;20041;-60
2023/03/28 10:01:59;;;;;;;10.43;0.98;;;7.80;34.00;;;;;;5064402;28;20062;-60
2023/03/28 10:04:28;;;;;;;7.15;0.80;;;7.60;30.30;;;;;;5055647;28;20037;-60
2023/03/28 10:07:28;;;;;;;3.92;0.80;;;7.50;32.30;;;;;;5057712;28;20044;-60
2023/03/28 10:09:57;;;;;;;5.38;0.80;;;7.50;33.40;;;;;;5053732;28;20132;-60
2023/03/28 10:12:35;;;;;;;4.47;0.82;;;7.50;30.00;;;;;;5015255;28;20045;-60
2023/03/28 10:15:01;;;;;;;3.00;0.95;;;7.50;29.80;;;;;;5067339;28;20046;-60
2023/03/28 10:17:33;;;;;;;8.80;0.90;;;7.50;33.00;;;;;;5067602;28;20123;-61
2023/03/28 10:20:16;;;;;;;5.20;1.20;;;7.50;32.10;;;;;;5067152;28;20102;-60
2023/03/28 10:22:44;;;;;;;2.65;0.55;;;7.50;30.20;;;;;;5049989;28;20060;-60
2023/03/28 10:25:19;;;;;;;1.52;0.68;;;7.60;27.70;;;;;;5066951;28;20586;-60
2023/03/28 10:27:47;;;;;;;8.60;1.17;;;7.70;27.90;;;;;;5048666;28;20052;-60
2023/03/28 10:30:12;;;;;;;4.50;1.13;;;7.90;26.00;;;;;;5048993;28;20036;-60
2023/03/28 10:32:38;;;;;;;3.65;0.85;;;8.00;26.20;;;;;;5049014;28;20089;-60
2023/03/28 10:35:26;;;;;;;5.82;0.82;;;8.20;28.20;;;;;;5066169;28;20449;-60
2023/03/28 10:37:57;;;;;;;8.32;1.30;;;8.30;23.80;;;;;;5065949;28;20050;-60
2023/03/28 10:40:31;;;;;;;3.20;0.93;;;8.10;26.90;;;;;;5047055;28;20062;-60
2023/03/28 10:42:58;;;;;;;4.13;0.90;;;8.00;25.40;;;;;;5060615;28;20044;-60
2023/03/28 10:45:40;;;;;;;12.93;1.33;;;7.90;27.60;;;;;;5047680;28;20529;-60
2023/03/28 10:48:12;;;;;;;8.75;0.80;;;8.10;25.30;;;;;;5027670;28;20048;-60
2023/03/28 10:50:46;;;;;;;9.82;1.30;;;8.20;24.30;;;;;;5041183;28;20156;-60
2023/03/28 10:53:35;;;;;;;4.78;0.80;;;8.20;22.90;;;;;;5067064;28;20041;-60
2023/03/28 10:56:26;;;;;;;9.20;1.45;;;8.20;25.00;;;;;;5066623;28;20124;-61
2023/03/28 10:59:22;;;;;;;5.38;0.82;;;8.20;24.20;;;;;;5047860;28;20110;-60
2023/03/28 11:02:05;;;;;;;8.07;0.95;;;8.20;24.40;;;;;;5062900;28;20487;-60
2023/03/28 11:05:02;;;;;;;3.60;1.00;;;8.30;25.80;;;;;;5056504;28;20521;-60
2023/03/28 11:07:47;;;;;;;3.30;1.20;;;8.40;20.80;;;;;;5063532;28;20044;-60
2023/03/28 11:10:20;;;;;;;5.20;1.00;;;8.50;22.80;;;;;;5065662;28;20068;-61
2023/03/28 11:12:46;;;;;;;2.40;1.05;;;8.60;23.30;;;;;;5064870;28;20097;-60
2023/03/28 11:15:39;;;;;;;11.15;1.00;;;8.60;20.20;;;;;;5058055;28;20048;-60
2023/03/28 11:18:22;;;;;;;6.45;1.45;;;8.60;19.30;;;;;;5047303;28;20132;-60
2023/03/28 11:20:54;;;;;;;6.07;0.85;;;8.70;19.90;;;;;;5045458;28;20385;-60
2023/03/28 11:23:38;;;;;;;6.97;1.08;;;8.80;21.10;;;;;;5046066;28;20432;-61
2023/03/28 11:26:13;;;;;;;3.63;0.73;;;8.70;19.80;;;;;;5061765;28;20037;-60
2023/03/28 11:28:52;;;;;;;9.27;1.38;;;8.70;19.00;;;;;;5066178;28;20834;-60
2023/03/28 11:31:25;;;;;;;5.95;1.35;;;8.60;16.90;;;;;;5062744;28;20048;-61
2023/03/28 11:34:09;;;;;;;7.85;1.15;;;8.60;18.10;;;;;;5066124;28;20055;-60
2023/03/28 11:36:52;;;;;;;5.80;1.23;;;8.60;20.40;;;;;;5065527;28;20161;-60
2023/03/28 11:39:49;;;;;;;4.47;1.13;;;8.60;18.30;;;;;;5066337;28;20131;-60
2023/03/28 11:42:26;;;;;;;6.63;0.82;;;8.60;18.50;;;;;;5056790;28;20051;-60
2023/03/28 11:45:27;;;;;;;7.88;1.20;;;8.60;20.40;;;;;;5067829;28;20683;-60
2023/03/28 11:48:25;;;;;;;2.13;0.90;;;8.70;23.40;;;;;;5027982;28;20087;-60
2023/03/28 11:51:17;;;;;;;7.18;1.25;;;8.70;21.70;;;;;;5070110;28;20051;-60
2023/03/28 11:53:57;;;;;;;4.78;1.05;;;8.80;22.40;;;;;;5070582;28;20102;-61
2023/03/28 11:56:45;;;;;;;4.10;0.98;;;8.90;21.60;;;;;;5026274;28;20064;-60
2023/03/28 11:59:17;;;;;;;9.90;1.30;;;9.10;23.20;;;;;;5060401;28;20545;-60
2023/03/28 12:01:48;;;;;;;22.58;3.97;;;9.20;23.60;;;;;;5070400;28;20437;-61
2023/03/28 12:04:20;;;;;;;3.40;1.20;;;9.30;21.50;;;;;;5069627;28;20051;-61
2023/03/28 12:07:11;;;;;;;5.60;1.58;;;9.30;19.50;;;;;;5069905;28;20041;-60
2023/03/28 12:09:59;;;;;;;8.32;1.20;;;9.40;19.50;;;;;;5069894;28;20048;-60
2023/03/28 12:12:36;;;;;;;1.92;1.02;;;9.50;20.90;;;;;;5069145;28;20049;-60
2023/03/28 12:15:29;;;;;;;5.28;1.75;;;9.40;20.70;;;;;;5052507;28;20114;-60
2023/03/28 12:18:00;;;;;;;7.95;1.50;;;9.40;21.50;;;;;;5069997;28;20052;-61
2023/03/28 12:21:04;;;;;;;4.45;1.23;;;9.30;20.80;;;;;;5069751;28;20044;-61
2023/03/28 12:23:45;;;;;;;4.03;0.90;;;9.40;20.90;;;;;;5042353;28;20055;-60
2023/03/28 12:26:47;;;;;;;3.20;0.70;;;9.40;17.90;;;;;;5063755;28;20037;-60
2023/03/28 12:29:27;;;;;;;3.75;0.95;;;9.40;18.10;;;;;;5055861;28;20037;-60
2023/03/28 12:31:59;;;;;;;8.93;0.98;;;9.30;18.60;;;;;;5041514;28;20437;-60
2023/03/28 12:34:47;;;;;;;2.97;0.95;;;9.30;18.50;;;;;;5050823;28;20045;-60
2023/03/28 12:37:55;;;;;;;0.75;0.40;;;9.30;17.10;;;;;;5069857;28;20056;-60
2023/03/28 12:40:28;;;;;;;1.67;0.73;;;9.20;17.20;;;;;;5057413;28;20517;-60
2023/03/28 12:42:57;;;;;;;4.82;0.98;;;9.20;15.10;;;;;;5069054;28;20083;-60
2023/03/28 12:45:31;;;;;;;3.05;0.80;;;9.20;16.60;;;;;;5069722;28;20080;-60
2023/03/28 12:48:07;;;;;;;3.50;0.85;;;9.20;15.10;;;;;;5034305;28;20045;-60
2023/03/28 12:50:48;;;;;;;6.68;1.35;;;9.30;16.30;;;;;;5068448;28;20053;-60
2023/03/28 12:53:16;;;;;;;1.25;0.70;;;9.50;15.70;;;;;;5069418;28;20048;-60
2023/03/28 12:55:50;;;;;;;7.47;0.98;;;9.70;15.00;;;;;;5068781;28;20048;-61
2023/03/28 12:58:22;;;;;;;5.22;1.13;;;9.60;14.80;;;;;;5068622;28;20048;-60
2023/03/28 13:01:06;;;;;;;4.60;1.20;;;9.80;15.90;;;;;;5069441;28;20037;-61
2023/03/28 13:03:56;;;;;;;3.97;0.90;;;10.10;16.60;;;;;;5049956;28;20045;-61
2023/03/28 13:06:46;;;;;;;6.50;1.08;;;10.30;15.00;;;;;;5068991;28;20049;-61
2023/03/28 13:09:37;;;;;;;8.82;1.48;;;10.30;12.10;;;;;;5068709;28;20045;-61
2023/03/28 13:12:29;;;;;;;5.07;1.20;;;10.40;12.50;;;;;;5069053;28;20525;-61
2023/03/28 13:15:08;;;;;;;3.17;0.90;;;10.50;13.30;;;;;;5069681;28;20491;-60
2023/03/28 13:17:36;;;;;;;7.23;1.20;;;10.40;9.30;;;;;;5067495;28;20525;-61
2023/03/28 13:20:11;;;;;;;1.35;0.93;;;10.20;12.60;;;;;;5051408;28;20507;-61